sensor_id;sensor_type;location;lat;lon;timestamp;temperature;humidity
32322;DHT22;61553;48.994;8.940;2022-09-21T00:00:00;3.90;99.90
32322;DHT22;61553;48.994;8.940;2022-09-21T00:02:27;4.00;99.90
32322;DHT22;61553;48.994;8.940;2022-09-21T00:04:53;4.00;99.90
32322;DHT22;61553;48.994;8.940;2022-09-21T00:07:18;4.00;99.90
32322;DHT22;61553;48.994;8.940;2022-09-21T00:09:44;4.00;99.90
32322;DHT22;61553;48.994;8.940;2022-09-21T00:12:10;4.00;99.90
32322;DHT22;61553;48.994;8.940;2022-09-21T00:14:36;4.00;99.90
32322;DHT22;61553;48.994;8.940;2022-09-21T00:17:02;4.00;99.90
32322;DHT22;61553;48.994;8.940;2022-09-21T00:19:28;4.10;99.90
32322;DHT22;61553;48.994;8.940;2022-09-21T00:21:54;4.10;99.90
32322;DHT22;61553;48.994;8.940;2022-09-21T00:24:20;4.10;99.90
32322;DHT22;61553;48.994;8.940;2022-09-21T00:26:46;4.10;99.90
32322;DHT22;61553;48.994;8.940;2022-09-21T00:29:11;4.10;99.90
32322;DHT22;61553;48.994;8.940;2022-09-21T00:31:38;4.00;99.90
32322;DHT22;61553;48.994;8.940;2022-09-21T00:34:04;3.90;99.90
32322;DHT22;61553;48.994;8.940;2022-09-21T00:36:32;3.90;99.90
32322;DHT22;61553;48.994;8.940;2022-09-21T00:38:59;3.90;99.90
32322;DHT22;61553;48.994;8.940;2022-09-21T00:41:27;3.80;99.90
32322;DHT22;61553;48.994;8.940;2022-09-21T00:44:27;3.80;99.90
32322;DHT22;61553;48.994;8.940;2022-09-21T00:46:56;3.60;99.90
32322;DHT22;61553;48.994;8.940;2022-09-21T00:49:24;3.60;99.90
32322;DHT22;61553;48.994;8.940;2022-09-21T00:51:52;3.50;99.90
32322;DHT22;61553;48.994;8.940;2022-09-21T00:54:26;3.50;99.90
32322;DHT22;61553;48.994;8.940;2022-09-21T00:56:54;3.50;99.90
32322;DHT22;61553;48.994;8.940;2022-09-21T00:59:21;3.40;99.90
32322;DHT22;61553;48.994;8.940;2022-09-21T01:01:47;3.40;99.90
32322;DHT22;61553;48.994;8.940;2022-09-21T01:04:14;3.40;99.90
32322;DHT22;61553;48.994;8.940;2022-09-21T01:06:43;3.30;99.90
32322;DHT22;61553;48.994;8.940;2022-09-21T01:09:09;3.30;99.90
32322;DHT22;61553;48.994;8.940;2022-09-21T01:12:01;3.30;99.90
32322;DHT22;61553;48.994;8.940;2022-09-21T01:17:51;3.30;99.90
32322;DHT22;61553;48.994;8.940;2022-09-21T01:29:22;3.10;99.90
32322;DHT22;61553;48.994;8.940;2022-09-21T01:37:56;3.10;99.90
32322;DHT22;61553;48.994;8.940;2022-09-21T01:40:29;3.20;99.90
32322;DHT22;61553;48.994;8.940;2022-09-21T01:42:56;3.30;99.90
32322;DHT22;61553;48.994;8.940;2022-09-21T01:45:28;3.40;99.90
32322;DHT22;61553;48.994;8.940;2022-09-21T01:47:56;3.40;99.90
32322;DHT22;61553;48.994;8.940;2022-09-21T01:50:24;3.40;99.90
32322;DHT22;61553;48.994;8.940;2022-09-21T01:55:52;3.40;99.90
32322;DHT22;61553;48.994;8.940;2022-09-21T01:58:26;3.40;99.90
32322;DHT22;61553;48.994;8.940;2022-09-21T02:00:56;3.40;99.90
32322;DHT22;61553;48.994;8.940;2022-09-21T02:03:42;3.30;99.90
32322;DHT22;61553;48.994;8.940;2022-09-21T02:06:10;3.20;99.90
32322;DHT22;61553;48.994;8.940;2022-09-21T02:08:38;3.20;99.90
32322;DHT22;61553;48.994;8.940;2022-09-21T02:11:04;3.10;99.90
32322;DHT22;61553;48.994;8.940;2022-09-21T02:13:36;3.00;99.90
32322;DHT22;61553;48.994;8.940;2022-09-21T02:18:38;2.90;99.90
32322;DHT22;61553;48.994;8.940;2022-09-21T02:21:17;2.90;99.90
32322;DHT22;61553;48.994;8.940;2022-09-21T02:24:06;2.90;99.90
32322;DHT22;61553;48.994;8.940;2022-09-21T02:26:37;2.90;99.90
32322;DHT22;61553;48.994;8.940;2022-09-21T02:29:11;2.80;99.90
32322;DHT22;61553;48.994;8.940;2022-09-21T02:31:48;2.80;99.90
32322;DHT22;61553;48.994;8.940;2022-09-21T02:34:31;2.80;99.90
32322;DHT22;61553;48.994;8.940;2022-09-21T02:37:07;2.70;99.90
32322;DHT22;61553;48.994;8.940;2022-09-21T02:42:21;2.60;99.90
32322;DHT22;61553;48.994;8.940;2022-09-21T02:45:14;2.50;99.90
32322;DHT22;61553;48.994;8.940;2022-09-21T02:50:46;2.50;99.90
32322;DHT22;61553;48.994;8.940;2022-09-21T02:53:17;2.40;99.90
32322;DHT22;61553;48.994;8.940;2022-09-21T02:55:43;2.40;99.90
32322;DHT22;61553;48.994;8.940;2022-09-21T02:58:13;2.40;99.90
32322;DHT22;61553;48.994;8.940;2022-09-21T03:00:40;2.40;99.90
32322;DHT22;61553;48.994;8.940;2022-09-21T03:03:20;2.40;99.90
32322;DHT22;61553;48.994;8.940;2022-09-21T03:05:48;2.40;99.90
32322;DHT22;61553;48.994;8.940;2022-09-21T03:08:16;2.40;99.90
32322;DHT22;61553;48.994;8.940;2022-09-21T03:10:42;2.40;99.90
32322;DHT22;61553;48.994;8.940;2022-09-21T03:13:08;2.40;99.90
32322;DHT22;61553;48.994;8.940;2022-09-21T03:15:36;2.30;99.90
32322;DHT22;61553;48.994;8.940;2022-09-21T03:18:02;2.30;99.90
32322;DHT22;61553;48.994;8.940;2022-09-21T03:20:32;2.30;99.90
32322;DHT22;61553;48.994;8.940;2022-09-21T03:22:59;2.30;99.90
32322;DHT22;61553;48.994;8.940;2022-09-21T03:25:25;2.20;99.90
32322;DHT22;61553;48.994;8.940;2022-09-21T03:27:51;2.20;99.90
32322;DHT22;61553;48.994;8.940;2022-09-21T03:30:22;2.20;99.90
32322;DHT22;61553;48.994;8.940;2022-09-21T03:32:49;2.20;99.90
32322;DHT22;61553;48.994;8.940;2022-09-21T03:35:16;2.20;99.90
32322;DHT22;61553;48.994;8.940;2022-09-21T03:37:42;2.20;99.90
32322;DHT22;61553;48.994;8.940;2022-09-21T03:40:08;2.20;99.90
32322;DHT22;61553;48.994;8.940;2022-09-21T03:42:34;2.10;99.90
32322;DHT22;61553;48.994;8.940;2022-09-21T03:45:00;2.10;99.90
32322;DHT22;61553;48.994;8.940;2022-09-21T03:47:25;2.10;99.90
32322;DHT22;61553;48.994;8.940;2022-09-21T03:49:52;2.10;99.90
32322;DHT22;61553;48.994;8.940;2022-09-21T03:52:18;2.10;99.90
32322;DHT22;61553;48.994;8.940;2022-09-21T03:54:43;2.10;99.90
32322;DHT22;61553;48.994;8.940;2022-09-21T03:57:09;2.10;99.90
32322;DHT22;61553;48.994;8.940;2022-09-21T03:59:35;2.10;99.90
32322;DHT22;61553;48.994;8.940;2022-09-21T04:02:00;2.10;99.90
32322;DHT22;61553;48.994;8.940;2022-09-21T04:04:26;2.20;99.90
32322;DHT22;61553;48.994;8.940;2022-09-21T04:06:51;2.20;99.90
32322;DHT22;61553;48.994;8.940;2022-09-21T04:09:17;2.30;99.90
32322;DHT22;61553;48.994;8.940;2022-09-21T04:11:44;2.30;99.90
32322;DHT22;61553;48.994;8.940;2022-09-21T04:14:11;2.30;99.90
32322;DHT22;61553;48.994;8.940;2022-09-21T04:16:37;2.40;99.90
32322;DHT22;61553;48.994;8.940;2022-09-21T04:19:02;2.50;99.90
32322;DHT22;61553;48.994;8.940;2022-09-21T04:21:28;2.60;99.90
32322;DHT22;61553;48.994;8.940;2022-09-21T04:23:54;2.60;99.90
32322;DHT22;61553;48.994;8.940;2022-09-21T04:26:28;2.60;99.90
32322;DHT22;61553;48.994;8.940;2022-09-21T04:28:55;2.50;99.90
32322;DHT22;61553;48.994;8.940;2022-09-21T04:31:22;2.50;99.90
32322;DHT22;61553;48.994;8.940;2022-09-21T04:33:50;2.50;99.90
32322;DHT22;61553;48.994;8.940;2022-09-21T04:36:19;2.60;99.90
32322;DHT22;61553;48.994;8.940;2022-09-21T04:38:45;2.60;99.90
32322;DHT22;61553;48.994;8.940;2022-09-21T04:41:11;2.50;99.90
32322;DHT22;61553;48.994;8.940;2022-09-21T04:43:40;2.60;99.90
32322;DHT22;61553;48.994;8.940;2022-09-21T04:46:08;2.70;99.90
32322;DHT22;61553;48.994;8.940;2022-09-21T04:48:34;2.80;99.90
32322;DHT22;61553;48.994;8.940;2022-09-21T04:51:01;2.90;99.90
32322;DHT22;61553;48.994;8.940;2022-09-21T04:53:28;3.00;99.90
32322;DHT22;61553;48.994;8.940;2022-09-21T04:55:54;3.10;99.90
32322;DHT22;61553;48.994;8.940;2022-09-21T04:58:21;3.10;99.90
32322;DHT22;61553;48.994;8.940;2022-09-21T05:00:51;3.20;99.90
32322;DHT22;61553;48.994;8.940;2022-09-21T05:03:17;3.30;99.90
32322;DHT22;61553;48.994;8.940;2022-09-21T05:05:49;3.40;99.90
32322;DHT22;61553;48.994;8.940;2022-09-21T05:08:16;3.40;99.90
32322;DHT22;61553;48.994;8.940;2022-09-21T05:10:42;3.40;99.90
32322;DHT22;61553;48.994;8.940;2022-09-21T05:13:09;3.50;99.90
32322;DHT22;61553;48.994;8.940;2022-09-21T05:15:36;3.50;99.90
32322;DHT22;61553;48.994;8.940;2022-09-21T05:18:03;3.50;99.90
32322;DHT22;61553;48.994;8.940;2022-09-21T05:20:29;3.60;99.90
32322;DHT22;61553;48.994;8.940;2022-09-21T05:22:58;3.60;99.90
32322;DHT22;61553;48.994;8.940;2022-09-21T05:25:23;3.60;99.90
32322;DHT22;61553;48.994;8.940;2022-09-21T05:27:49;3.70;99.90
32322;DHT22;61553;48.994;8.940;2022-09-21T05:30:15;3.70;99.90
32322;DHT22;61553;48.994;8.940;2022-09-21T05:32:47;3.70;99.90
32322;DHT22;61553;48.994;8.940;2022-09-21T05:35:43;3.80;99.90
32322;DHT22;61553;48.994;8.940;2022-09-21T05:38:18;3.90;99.90
32322;DHT22;61553;48.994;8.940;2022-09-21T05:40:45;4.00;99.90
32322;DHT22;61553;48.994;8.940;2022-09-21T05:43:15;4.10;99.90
32322;DHT22;61553;48.994;8.940;2022-09-21T05:45:57;4.10;99.90
32322;DHT22;61553;48.994;8.940;2022-09-21T05:48:36;4.30;99.90
32322;DHT22;61553;48.994;8.940;2022-09-21T06:02:20;5.00;99.90
32322;DHT22;61553;48.994;8.940;2022-09-21T06:04:49;5.20;99.90
32322;DHT22;61553;48.994;8.940;2022-09-21T06:07:18;5.30;99.90
32322;DHT22;61553;48.994;8.940;2022-09-21T06:09:44;5.30;99.90
32322;DHT22;61553;48.994;8.940;2022-09-21T06:12:09;5.50;99.90
32322;DHT22;61553;48.994;8.940;2022-09-21T06:14:36;5.70;99.90
32322;DHT22;61553;48.994;8.940;2022-09-21T06:17:02;5.80;99.90
32322;DHT22;61553;48.994;8.940;2022-09-21T06:19:28;6.00;99.90
32322;DHT22;61553;48.994;8.940;2022-09-21T06:21:54;6.10;99.90
32322;DHT22;61553;48.994;8.940;2022-09-21T06:24:19;6.40;99.90
32322;DHT22;61553;48.994;8.940;2022-09-21T06:26:45;6.50;99.90
32322;DHT22;61553;48.994;8.940;2022-09-21T06:29:10;6.90;99.90
32322;DHT22;61553;48.994;8.940;2022-09-21T06:31:36;7.10;99.90
32322;DHT22;61553;48.994;8.940;2022-09-21T06:34:02;7.30;99.90
32322;DHT22;61553;48.994;8.940;2022-09-21T06:36:27;7.40;99.90
32322;DHT22;61553;48.994;8.940;2022-09-21T06:38:53;7.50;99.90
32322;DHT22;61553;48.994;8.940;2022-09-21T06:41:19;7.50;99.90
32322;DHT22;61553;48.994;8.940;2022-09-21T06:43:53;7.50;99.90
32322;DHT22;61553;48.994;8.940;2022-09-21T06:46:21;7.40;99.90
32322;DHT22;61553;48.994;8.940;2022-09-21T06:48:46;7.30;99.90
32322;DHT22;61553;48.994;8.940;2022-09-21T06:51:13;7.00;99.90
32322;DHT22;61553;48.994;8.940;2022-09-21T06:53:38;6.90;99.90
32322;DHT22;61553;48.994;8.940;2022-09-21T06:56:08;6.90;99.90
32322;DHT22;61553;48.994;8.940;2022-09-21T06:58:34;6.90;99.90
32322;DHT22;61553;48.994;8.940;2022-09-21T07:01:04;6.90;99.90
32322;DHT22;61553;48.994;8.940;2022-09-21T07:03:30;7.00;99.90
32322;DHT22;61553;48.994;8.940;2022-09-21T07:05:56;7.00;99.90
32322;DHT22;61553;48.994;8.940;2022-09-21T07:08:22;7.10;99.90
32322;DHT22;61553;48.994;8.940;2022-09-21T07:10:48;7.40;99.90
32322;DHT22;61553;48.994;8.940;2022-09-21T07:13:14;9.90;99.90
32322;DHT22;61553;48.994;8.940;2022-09-21T07:15:42;12.90;99.90
32322;DHT22;61553;48.994;8.940;2022-09-21T07:18:12;16.10;99.90
32322;DHT22;61553;48.994;8.940;2022-09-21T07:20:38;18.50;96.50
32322;DHT22;61553;48.994;8.940;2022-09-21T07:23:13;20.70;84.00
32322;DHT22;61553;48.994;8.940;2022-09-21T07:25:40;22.50;71.40
32322;DHT22;61553;48.994;8.940;2022-09-21T07:28:06;24.00;62.50
32322;DHT22;61553;48.994;8.940;2022-09-21T07:30:33;22.80;63.60
32322;DHT22;61553;48.994;8.940;2022-09-21T07:33:00;23.40;61.70
32322;DHT22;61553;48.994;8.940;2022-09-21T07:35:25;23.70;59.60
32322;DHT22;61553;48.994;8.940;2022-09-21T07:37:51;25.00;56.40
32322;DHT22;61553;48.994;8.940;2022-09-21T07:40:16;24.80;55.40
32322;DHT22;61553;48.994;8.940;2022-09-21T07:42:42;25.00;54.70
32322;DHT22;61553;48.994;8.940;2022-09-21T07:45:09;25.90;52.50
32322;DHT22;61553;48.994;8.940;2022-09-21T07:47:35;26.00;52.00
32322;DHT22;61553;48.994;8.940;2022-09-21T07:50:01;24.70;54.50
32322;DHT22;61553;48.994;8.940;2022-09-21T07:52:27;25.20;53.20
32322;DHT22;61553;48.994;8.940;2022-09-21T07:54:52;25.70;51.80
32322;DHT22;61553;48.994;8.940;2022-09-21T07:57:18;25.50;52.30
32322;DHT22;61553;48.994;8.940;2022-09-21T08:00:03;24.90;52.70
32322;DHT22;61553;48.994;8.940;2022-09-21T08:02:29;26.10;51.30
32322;DHT22;61553;48.994;8.940;2022-09-21T08:04:55;28.20;49.00
32322;DHT22;61553;48.994;8.940;2022-09-21T08:07:21;28.00;47.70
32322;DHT22;61553;48.994;8.940;2022-09-21T08:09:47;29.00;45.50
32322;DHT22;61553;48.994;8.940;2022-09-21T08:12:15;29.60;44.90
32322;DHT22;61553;48.994;8.940;2022-09-21T08:14:43;30.40;43.10
32322;DHT22;61553;48.994;8.940;2022-09-21T08:17:09;29.60;44.20
32322;DHT22;61553;48.994;8.940;2022-09-21T08:19:34;30.30;42.80
32322;DHT22;61553;48.994;8.940;2022-09-21T08:22:01;29.80;42.90
32322;DHT22;61553;48.994;8.940;2022-09-21T08:24:26;29.60;42.80
32322;DHT22;61553;48.994;8.940;2022-09-21T08:26:53;27.90;45.20
32322;DHT22;61553;48.994;8.940;2022-09-21T08:29:20;28.30;45.10
32322;DHT22;61553;48.994;8.940;2022-09-21T08:31:45;30.10;43.40
32322;DHT22;61553;48.994;8.940;2022-09-21T08:34:11;31.20;41.80
32322;DHT22;61553;48.994;8.940;2022-09-21T08:36:37;31.10;41.60
32322;DHT22;61553;48.994;8.940;2022-09-21T08:39:06;32.20;40.10
32322;DHT22;61553;48.994;8.940;2022-09-21T08:44:37;31.80;39.80
32322;DHT22;61553;48.994;8.940;2022-09-21T08:47:16;31.70;39.90
32322;DHT22;61553;48.994;8.940;2022-09-21T08:49:57;32.50;39.70
32322;DHT22;61553;48.994;8.940;2022-09-21T08:52:25;32.60;39.00
32322;DHT22;61553;48.994;8.940;2022-09-21T08:54:57;33.00;38.80
32322;DHT22;61553;48.994;8.940;2022-09-21T08:57:32;33.20;37.80
32322;DHT22;61553;48.994;8.940;2022-09-21T08:59:59;33.20;38.20
32322;DHT22;61553;48.994;8.940;2022-09-21T09:02:48;33.70;37.80
32322;DHT22;61553;48.994;8.940;2022-09-21T09:06:32;34.10;37.40
32322;DHT22;61553;48.994;8.940;2022-09-21T09:14:54;34.10;36.10
32322;DHT22;61553;48.994;8.940;2022-09-21T09:23:28;33.50;35.90
32322;DHT22;61553;48.994;8.940;2022-09-21T09:26:05;32.70;36.20
32322;DHT22;61553;48.994;8.940;2022-09-21T09:28:47;31.60;37.80
32322;DHT22;61553;48.994;8.940;2022-09-21T09:33:53;31.90;37.50
32322;DHT22;61553;48.994;8.940;2022-09-21T09:36:20;32.10;37.30
32322;DHT22;61553;48.994;8.940;2022-09-21T09:50:11;34.90;35.40
32322;DHT22;61553;48.994;8.940;2022-09-21T09:52:39;35.50;34.70
32322;DHT22;61553;48.994;8.940;2022-09-21T09:55:35;35.60;34.20
32322;DHT22;61553;48.994;8.940;2022-09-21T09:58:02;35.20;34.70
32322;DHT22;61553;48.994;8.940;2022-09-21T10:00:28;35.00;34.10
32322;DHT22;61553;48.994;8.940;2022-09-21T10:02:55;35.40;34.20
32322;DHT22;61553;48.994;8.940;2022-09-21T10:07:53;36.60;33.00
32322;DHT22;61553;48.994;8.940;2022-09-21T10:12:55;35.90;32.50
32322;DHT22;61553;48.994;8.940;2022-09-21T10:15:24;35.60;32.10
32322;DHT22;61553;48.994;8.940;2022-09-21T10:18:17;35.40;32.80
32322;DHT22;61553;48.994;8.940;2022-09-21T10:20:59;35.90;32.80
32322;DHT22;61553;48.994;8.940;2022-09-21T10:23:26;36.20;31.50
32322;DHT22;61553;48.994;8.940;2022-09-21T10:26:09;36.20;31.30
32322;DHT22;61553;48.994;8.940;2022-09-21T10:28:54;35.50;32.20
32322;DHT22;61553;48.994;8.940;2022-09-21T10:31:28;34.60;32.60
32322;DHT22;61553;48.994;8.940;2022-09-21T10:34:05;33.80;32.90
32322;DHT22;61553;48.994;8.940;2022-09-21T10:36:36;33.50;33.20
32322;DHT22;61553;48.994;8.940;2022-09-21T10:39:18;33.70;33.30
32322;DHT22;61553;48.994;8.940;2022-09-21T10:41:47;33.90;33.10
32322;DHT22;61553;48.994;8.940;2022-09-21T10:44:15;34.60;32.10
32322;DHT22;61553;48.994;8.940;2022-09-21T10:46:42;34.30;32.70
32322;DHT22;61553;48.994;8.940;2022-09-21T10:49:23;33.70;32.80
32322;DHT22;61553;48.994;8.940;2022-09-21T10:51:51;31.90;32.60
32322;DHT22;61553;48.994;8.940;2022-09-21T10:54:21;31.10;34.10
32322;DHT22;61553;48.994;8.940;2022-09-21T10:56:53;31.20;34.70
32322;DHT22;61553;48.994;8.940;2022-09-21T10:59:25;29.60;35.10
32322;DHT22;61553;48.994;8.940;2022-09-21T11:01:55;28.30;35.80
32322;DHT22;61553;48.994;8.940;2022-09-21T11:04:28;26.90;38.00
32322;DHT22;61553;48.994;8.940;2022-09-21T11:07:07;27.10;38.90
32322;DHT22;61553;48.994;8.940;2022-09-21T11:09:58;27.20;39.60
32322;DHT22;61553;48.994;8.940;2022-09-21T11:12:50;27.10;40.00
32322;DHT22;61553;48.994;8.940;2022-09-21T11:18:12;25.90;41.60
32322;DHT22;61553;48.994;8.940;2022-09-21T11:20:50;24.10;44.80
32322;DHT22;61553;48.994;8.940;2022-09-21T11:26:26;22.80;47.10
32322;DHT22;61553;48.994;8.940;2022-09-21T11:29:26;21.50;49.50
32322;DHT22;61553;48.994;8.940;2022-09-21T11:35:13;21.60;50.70
32322;DHT22;61553;48.994;8.940;2022-09-21T11:56:54;20.30;52.90
32322;DHT22;61553;48.994;8.940;2022-09-21T11:59:50;20.30;52.50
32322;DHT22;61553;48.994;8.940;2022-09-21T12:13:26;19.60;55.20
32322;DHT22;61553;48.994;8.940;2022-09-21T12:16:32;19.70;54.40
32322;DHT22;61553;48.994;8.940;2022-09-21T12:19:12;19.70;54.90
32322;DHT22;61553;48.994;8.940;2022-09-21T12:21:48;19.80;54.30
32322;DHT22;61553;48.994;8.940;2022-09-21T12:24:24;19.70;54.80
32322;DHT22;61553;48.994;8.940;2022-09-21T12:26:57;19.70;55.20
32322;DHT22;61553;48.994;8.940;2022-09-21T12:29:37;19.40;55.90
32322;DHT22;61553;48.994;8.940;2022-09-21T12:32:32;19.10;57.20
32322;DHT22;61553;48.994;8.940;2022-09-21T12:35:00;18.80;57.60
32322;DHT22;61553;48.994;8.940;2022-09-21T12:37:35;18.80;58.50
32322;DHT22;61553;48.994;8.940;2022-09-21T12:40:14;19.10;58.20
32322;DHT22;61553;48.994;8.940;2022-09-21T12:42:54;19.20;57.50
32322;DHT22;61553;48.994;8.940;2022-09-21T12:45:32;19.10;56.30
32322;DHT22;61553;48.994;8.940;2022-09-21T12:50:56;18.80;57.10
32322;DHT22;61553;48.994;8.940;2022-09-21T12:53:25;18.70;57.80
32322;DHT22;61553;48.994;8.940;2022-09-21T13:04:17;18.70;58.40
32322;DHT22;61553;48.994;8.940;2022-09-21T13:09:33;18.80;55.70
32322;DHT22;61553;48.994;8.940;2022-09-21T13:12:19;18.70;56.10
32322;DHT22;61553;48.994;8.940;2022-09-21T13:14:49;18.80;56.90
32322;DHT22;61553;48.994;8.940;2022-09-21T13:17:26;19.00;55.90
32322;DHT22;61553;48.994;8.940;2022-09-21T13:20:18;19.30;54.90
32322;DHT22;61553;48.994;8.940;2022-09-21T13:22:45;19.40;53.60
32322;DHT22;61553;48.994;8.940;2022-09-21T13:25:21;19.40;53.40
32322;DHT22;61553;48.994;8.940;2022-09-21T13:30:42;19.00;54.80
32322;DHT22;61553;48.994;8.940;2022-09-21T13:38:25;18.90;54.30
32322;DHT22;61553;48.994;8.940;2022-09-21T13:41:03;19.20;54.50
32322;DHT22;61553;48.994;8.940;2022-09-21T13:49:02;19.40;53.10
32322;DHT22;61553;48.994;8.940;2022-09-21T13:51:32;19.10;52.80
32322;DHT22;61553;48.994;8.940;2022-09-21T13:54:00;18.90;53.60
32322;DHT22;61553;48.994;8.940;2022-09-21T13:56:27;18.70;54.90
32322;DHT22;61553;48.994;8.940;2022-09-21T13:58:55;18.40;55.40
32322;DHT22;61553;48.994;8.940;2022-09-21T14:01:29;18.50;55.10
32322;DHT22;61553;48.994;8.940;2022-09-21T14:04:03;18.40;55.30
32322;DHT22;61553;48.994;8.940;2022-09-21T14:06:40;18.50;54.80
32322;DHT22;61553;48.994;8.940;2022-09-21T14:09:22;18.50;54.40
32322;DHT22;61553;48.994;8.940;2022-09-21T14:11:58;18.40;54.50
32322;DHT22;61553;48.994;8.940;2022-09-21T14:14:30;18.50;55.70
32322;DHT22;61553;48.994;8.940;2022-09-21T14:16:58;18.70;54.80
32322;DHT22;61553;48.994;8.940;2022-09-21T14:24:43;19.10;54.00
32322;DHT22;61553;48.994;8.940;2022-09-21T14:27:17;18.90;53.10
32322;DHT22;61553;48.994;8.940;2022-09-21T14:29:54;18.80;52.50
32322;DHT22;61553;48.994;8.940;2022-09-21T14:32:24;18.90;53.30
32322;DHT22;61553;48.994;8.940;2022-09-21T14:34:56;18.60;52.40
32322;DHT22;61553;48.994;8.940;2022-09-21T14:37:35;18.60;52.90
32322;DHT22;61553;48.994;8.940;2022-09-21T14:40:22;18.60;52.10
32322;DHT22;61553;48.994;8.940;2022-09-21T14:42:51;18.70;51.80
32322;DHT22;61553;48.994;8.940;2022-09-21T14:45:23;18.90;50.30
32322;DHT22;61553;48.994;8.940;2022-09-21T14:48:07;19.10;50.30
32322;DHT22;61553;48.994;8.940;2022-09-21T15:02:31;18.90;49.50
32322;DHT22;61553;48.994;8.940;2022-09-21T15:19:23;18.50;51.50
32322;DHT22;61553;48.994;8.940;2022-09-21T15:24:48;18.50;51.40
32322;DHT22;61553;48.994;8.940;2022-09-21T15:27:16;18.50;51.10
32322;DHT22;61553;48.994;8.940;2022-09-21T15:29:45;18.40;51.90
32322;DHT22;61553;48.994;8.940;2022-09-21T15:35:02;18.20;52.70
32322;DHT22;61553;48.994;8.940;2022-09-21T15:37:28;18.20;52.40
32322;DHT22;61553;48.994;8.940;2022-09-21T15:40:00;18.30;52.40
32322;DHT22;61553;48.994;8.940;2022-09-21T15:42:27;18.40;52.30
32322;DHT22;61553;48.994;8.940;2022-09-21T15:45:11;18.50;52.40
32322;DHT22;61553;48.994;8.940;2022-09-21T15:47:38;18.50;52.10
32322;DHT22;61553;48.994;8.940;2022-09-21T15:50:16;18.50;52.00
32322;DHT22;61553;48.994;8.940;2022-09-21T15:53:05;18.30;52.90
32322;DHT22;61553;48.994;8.940;2022-09-21T15:55:33;18.20;53.00
32322;DHT22;61553;48.994;8.940;2022-09-21T15:57:59;17.90;53.30
32322;DHT22;61553;48.994;8.940;2022-09-21T16:00:32;17.60;53.50
32322;DHT22;61553;48.994;8.940;2022-09-21T16:05:40;17.00;55.80
32322;DHT22;61553;48.994;8.940;2022-09-21T16:14:17;16.10;58.60
32322;DHT22;61553;48.994;8.940;2022-09-21T16:22:38;15.50;60.80
32322;DHT22;61553;48.994;8.940;2022-09-21T16:28:36;15.10;62.50
32322;DHT22;61553;48.994;8.940;2022-09-21T16:30:50;15.00;62.00
32322;DHT22;61553;48.994;8.940;2022-09-21T16:36:50;14.60;65.30
32322;DHT22;61553;48.994;8.940;2022-09-21T16:38:54;14.50;66.10
32322;DHT22;61553;48.994;8.940;2022-09-21T16:41:25;14.30;64.60
32322;DHT22;61553;48.994;8.940;2022-09-21T16:43:57;14.30;65.10
32322;DHT22;61553;48.994;8.940;2022-09-21T16:46:25;14.10;66.80
32322;DHT22;61553;48.994;8.940;2022-09-21T16:48:52;14.00;67.70
32322;DHT22;61553;48.994;8.940;2022-09-21T16:51:20;13.90;69.20
32322;DHT22;61553;48.994;8.940;2022-09-21T16:53:54;13.80;70.60
32322;DHT22;61553;48.994;8.940;2022-09-21T16:56:20;13.70;72.30
32322;DHT22;61553;48.994;8.940;2022-09-21T16:58:46;13.50;73.30
32322;DHT22;61553;48.994;8.940;2022-09-21T17:01:16;13.40;74.40
32322;DHT22;61553;48.994;8.940;2022-09-21T17:03:43;13.30;75.80
32322;DHT22;61553;48.994;8.940;2022-09-21T17:06:20;13.10;77.00
32322;DHT22;61553;48.994;8.940;2022-09-21T17:08:46;13.10;78.90
32322;DHT22;61553;48.994;8.940;2022-09-21T17:11:16;12.90;80.40
32322;DHT22;61553;48.994;8.940;2022-09-21T17:13:47;12.80;83.40
32322;DHT22;61553;48.994;8.940;2022-09-21T17:16:13;12.60;85.20
32322;DHT22;61553;48.994;8.940;2022-09-21T17:18:45;12.40;87.40
32322;DHT22;61553;48.994;8.940;2022-09-21T17:21:12;12.30;90.30
32322;DHT22;61553;48.994;8.940;2022-09-21T17:23:37;12.10;91.20
32322;DHT22;61553;48.994;8.940;2022-09-21T17:26:15;12.00;92.30
32322;DHT22;61553;48.994;8.940;2022-09-21T17:28:42;11.80;93.80
32322;DHT22;61553;48.994;8.940;2022-09-21T17:31:13;11.70;95.20
32322;DHT22;61553;48.994;8.940;2022-09-21T17:33:39;11.60;97.00
32322;DHT22;61553;48.994;8.940;2022-09-21T17:36:10;11.40;99.20
32322;DHT22;61553;48.994;8.940;2022-09-21T17:38:37;11.30;99.90
32322;DHT22;61553;48.994;8.940;2022-09-21T17:41:05;11.10;99.90
32322;DHT22;61553;48.994;8.940;2022-09-21T17:46:29;10.80;99.90
32322;DHT22;61553;48.994;8.940;2022-09-21T17:48:56;10.60;99.90
32322;DHT22;61553;48.994;8.940;2022-09-21T17:51:22;10.40;99.90
32322;DHT22;61553;48.994;8.940;2022-09-21T17:54:06;10.30;99.90
32322;DHT22;61553;48.994;8.940;2022-09-21T17:56:57;10.20;99.90
32322;DHT22;61553;48.994;8.940;2022-09-21T17:59:31;10.10;99.90
32322;DHT22;61553;48.994;8.940;2022-09-21T18:01:58;10.00;99.90
32322;DHT22;61553;48.994;8.940;2022-09-21T18:04:26;9.90;99.90
32322;DHT22;61553;48.994;8.940;2022-09-21T18:06:53;9.90;99.90
32322;DHT22;61553;48.994;8.940;2022-09-21T18:09:19;9.70;99.90
32322;DHT22;61553;48.994;8.940;2022-09-21T18:20:34;9.30;99.90
32322;DHT22;61553;48.994;8.940;2022-09-21T18:25:51;9.10;99.90
32322;DHT22;61553;48.994;8.940;2022-09-21T18:31:01;8.90;99.90
32322;DHT22;61553;48.994;8.940;2022-09-21T18:36:52;8.70;99.90
32322;DHT22;61553;48.994;8.940;2022-09-21T18:44:49;8.40;99.90
32322;DHT22;61553;48.994;8.940;2022-09-21T18:47:39;8.40;99.90
32322;DHT22;61553;48.994;8.940;2022-09-21T18:53:11;8.20;99.90
32322;DHT22;61553;48.994;8.940;2022-09-21T18:55:40;8.20;99.90
32322;DHT22;61553;48.994;8.940;2022-09-21T18:58:06;8.00;99.90
32322;DHT22;61553;48.994;8.940;2022-09-21T19:00:32;8.00;99.90
32322;DHT22;61553;48.994;8.940;2022-09-21T19:03:06;7.90;99.90
32322;DHT22;61553;48.994;8.940;2022-09-21T19:05:37;7.80;99.90
32322;DHT22;61553;48.994;8.940;2022-09-21T19:08:13;7.80;99.90
32322;DHT22;61553;48.994;8.940;2022-09-21T19:11:11;7.70;99.90
32322;DHT22;61553;48.994;8.940;2022-09-21T19:13:54;7.70;99.90
32322;DHT22;61553;48.994;8.940;2022-09-21T19:16:32;7.60;99.90
32322;DHT22;61553;48.994;8.940;2022-09-21T19:19:11;7.60;99.90
32322;DHT22;61553;48.994;8.940;2022-09-21T19:24:28;7.60;99.90
32322;DHT22;61553;48.994;8.940;2022-09-21T19:27:09;7.50;99.90
32322;DHT22;61553;48.994;8.940;2022-09-21T19:32:52;7.40;99.90
32322;DHT22;61553;48.994;8.940;2022-09-21T19:35:27;7.40;99.90
32322;DHT22;61553;48.994;8.940;2022-09-21T19:37:55;7.30;99.90
32322;DHT22;61553;48.994;8.940;2022-09-21T19:40:24;7.30;99.90
32322;DHT22;61553;48.994;8.940;2022-09-21T19:45:50;7.20;99.90
32322;DHT22;61553;48.994;8.940;2022-09-21T19:48:18;7.10;99.90
32322;DHT22;61553;48.994;8.940;2022-09-21T19:50:52;7.10;99.90
32322;DHT22;61553;48.994;8.940;2022-09-21T19:53:19;7.00;99.90
32322;DHT22;61553;48.994;8.940;2022-09-21T19:56:07;6.90;99.90
32322;DHT22;61553;48.994;8.940;2022-09-21T19:58:52;6.80;99.90